Time;durP1;ratioP1;P1;durP2;ratioP2;P2;SDS_P1;SDS_P2;PMS_P1;PMS_P2;Temp;Humidity;BMP_temperature;BMP_pressure;BME280_temperature;BME280_humidity;BME280_pressure;Samples;Min_cycle;Max_cycle;Signal;HPM_P1;HPM_P2
2023/03/19 00:02:03;;;;;;;20.00;17.83;;;10.50;99.90;;;;;;5087702;28;20044;-85
2023/03/19 00:04:28;;;;;;;19.08;16.23;;;10.50;99.90;;;;;;5085689;28;20032;-85
2023/03/19 00:06:54;;;;;;;21.15;18.92;;;10.50;99.90;;;;;;5084451;28;20067;-84
2023/03/19 00:09:20;;;;;;;18.92;16.80;;;10.50;99.90;;;;;;5083206;28;20054;-85
2023/03/19 00:11:47;;;;;;;18.45;16.63;;;10.50;99.90;;;;;;5082417;28;20562;-85
2023/03/19 00:14:12;;;;;;;19.42;17.52;;;10.40;99.90;;;;;;5075280;28;20039;-85
2023/03/19 00:16:38;;;;;;;18.50;16.90;;;10.40;99.90;;;;;;5088642;28;20040;-84
2023/03/19 00:19:04;;;;;;;19.60;17.75;;;10.40;99.90;;;;;;5067436;28;20408;-85
2023/03/19 00:21:33;;;;;;;18.45;16.75;;;10.40;99.90;;;;;;5065341;28;20059;-85
2023/03/19 00:24:02;;;;;;;19.98;17.95;;;10.40;99.90;;;;;;5067356;28;20482;-85
2023/03/19 00:26:29;;;;;;;19.35;17.58;;;10.30;99.90;;;;;;5082766;28;20032;-85
2023/03/19 00:28:56;;;;;;;19.23;17.42;;;10.40;99.90;;;;;;5067011;28;20097;-85
2023/03/19 00:31:22;;;;;;;18.73;15.57;;;10.40;99.90;;;;;;5077721;28;20036;-85
2023/03/19 00:33:48;;;;;;;18.45;16.83;;;10.40;99.90;;;;;;5081759;28;20111;-84
2023/03/19 00:36:15;;;;;;;17.42;15.73;;;10.60;99.90;;;;;;5074520;28;20040;-85
2023/03/19 00:38:41;;;;;;;16.83;15.23;;;10.50;99.90;;;;;;5085515;28;20031;-84
2023/03/19 00:41:07;;;;;;;17.20;15.60;;;10.70;99.90;;;;;;5092527;28;20542;-85
2023/03/19 00:43:34;;;;;;;16.83;15.25;;;10.60;99.90;;;;;;5071803;28;20130;-85
2023/03/19 00:46:00;;;;;;;16.67;15.00;;;10.90;99.90;;;;;;5066172;28;20051;-85
2023/03/19 00:48:26;;;;;;;16.35;14.85;;;10.40;99.90;;;;;;5068689;28;20107;-85
2023/03/19 00:50:51;;;;;;;17.70;14.68;;;10.50;99.90;;;;;;5064644;28;20093;-84
2023/03/19 00:53:18;;;;;;;16.33;14.85;;;10.50;99.90;;;;;;5064884;28;20044;-85
2023/03/19 00:55:43;;;;;;;15.00;13.57;;;10.40;99.90;;;;;;5086067;28;20461;-84
2023/03/19 00:58:09;;;;;;;13.45;12.15;;;10.50;99.90;;;;;;5065939;28;20114;-85
2023/03/19 01:00:37;;;;;;;14.07;12.88;;;10.40;99.90;;;;;;5079373;28;20035;-85
2023/03/19 01:03:04;;;;;;;13.43;12.25;;;10.50;99.90;;;;;;5086977;28;20040;-85
2023/03/19 01:05:30;;;;;;;13.55;12.25;;;10.50;99.90;;;;;;5079606;28;20122;-84
2023/03/19 01:07:56;;;;;;;16.45;12.32;;;10.80;99.90;;;;;;5103005;28;20115;-85
2023/03/19 01:10:23;;;;;;;13.10;11.07;;;10.50;99.90;;;;;;5082812;28;20084;-85
2023/03/19 01:12:49;;;;;;;12.10;10.05;;;10.50;99.90;;;;;;5082587;28;20503;-84
2023/03/19 01:15:15;;;;;;;12.05;9.93;;;10.70;99.90;;;;;;5088415;28;20127;-84
2023/03/19 01:17:41;;;;;;;10.57;9.60;;;10.60;99.90;;;;;;5082741;28;20560;-84
2023/03/19 01:20:12;;;;;;;11.68;9.82;;;10.60;99.90;;;;;;5074266;28;20122;-85
2023/03/19 01:22:41;;;;;;;10.77;9.80;;;10.60;99.90;;;;;;5066525;28;20118;-84
2023/03/19 01:25:08;;;;;;;11.40;10.05;;;11.30;99.90;;;;;;5068876;28;20031;-84
2023/03/19 01:27:35;;;;;;;11.93;10.75;;;10.60;99.90;;;;;;5082867;28;20075;-85
2023/03/19 01:30:01;;;;;;;11.00;9.98;;;11.00;99.90;;;;;;5065742;28;20054;-82
2023/03/19 01:32:27;;;;;;;11.82;9.30;;;10.60;99.90;;;;;;5067677;28;20111;-84
2023/03/19 01:34:52;;;;;;;10.20;9.20;;;10.80;99.90;;;;;;5083025;28;20122;-84
2023/03/19 01:37:19;;;;;;;9.82;8.90;;;10.60;99.90;;;;;;5083836;28;20075;-84
2023/03/19 01:39:45;;;;;;;9.05;8.15;;;10.60;99.90;;;;;;5066978;28;20043;-84
2023/03/19 01:42:11;;;;;;;13.10;8.20;;;10.60;99.90;;;;;;5069881;28;20039;-84
2023/03/19 01:44:38;;;;;;;8.88;6.95;;;10.60;99.90;;;;;;5075098;28;20035;-85
2023/03/19 01:47:13;;;;;;;10.18;7.55;;;10.50;99.90;;;;;;5070451;28;20032;-83
2023/03/19 01:49:39;;;;;;;8.63;6.85;;;10.50;99.90;;;;;;5075862;28;20055;-83
2023/03/19 01:52:06;;;;;;;9.57;7.20;;;10.60;99.90;;;;;;5087903;28;20040;-84
2023/03/19 01:54:33;;;;;;;9.18;6.72;;;10.50;99.90;;;;;;5086545;28;20057;-84
2023/03/19 01:57:06;;;;;;;7.18;6.53;;;10.50;99.90;;;;;;5085981;28;20035;-84
2023/03/19 01:59:37;;;;;;;7.57;6.32;;;10.50;99.90;;;;;;5070585;28;20050;-83
2023/03/19 02:02:31;;;;;;;7.80;6.40;;;10.40;99.90;;;;;;5071572;28;20542;-84
2023/03/19 02:05:11;;;;;;;6.88;6.28;;;10.40;99.90;;;;;;5069560;28;20040;-84
2023/03/19 02:07:40;;;;;;;7.82;6.15;;;10.40;99.90;;;;;;5075489;28;20043;-84
2023/03/19 02:10:10;;;;;;;6.85;6.25;;;10.40;99.90;;;;;;5074336;28;20572;-85
2023/03/19 02:12:36;;;;;;;7.22;6.32;;;10.30;99.90;;;;;;5069010;28;20044;-84
2023/03/19 02:15:01;;;;;;;6.00;5.40;;;10.40;99.90;;;;;;5087021;28;20161;-84
2023/03/19 02:17:28;;;;;;;6.80;5.18;;;10.40;99.90;;;;;;5070290;28;20130;-84
2023/03/19 02:19:58;;;;;;;6.18;5.55;;;10.30;99.90;;;;;;5089062;28;20049;-85
2023/03/19 02:22:27;;;;;;;6.47;5.43;;;10.30;99.90;;;;;;5074811;28;20043;-84
2023/03/19 02:25:07;;;;;;;6.20;5.22;;;10.30;99.90;;;;;;5089161;28;20067;-85
2023/03/19 02:27:33;;;;;;;6.57;4.93;;;10.30;99.90;;;;;;5074465;28;20047;-84
2023/03/19 02:29:59;;;;;;;5.93;5.25;;;10.30;99.90;;;;;;5088483;28;20097;-84
2023/03/19 02:32:25;;;;;;;10.07;4.63;;;10.30;99.90;;;;;;5077316;28;21691;-85
2023/03/19 02:34:51;;;;;;;4.88;4.32;;;10.20;99.90;;;;;;5077176;28;20044;-84
2023/03/19 02:37:24;;;;;;;6.97;5.00;;;10.10;99.90;;;;;;5076617;28;20576;-84
2023/03/19 02:39:58;;;;;;;4.75;4.28;;;10.10;99.90;;;;;;5066519;28;20504;-84
2023/03/19 02:42:27;;;;;;;4.50;4.10;;;10.10;99.90;;;;;;5076590;28;20036;-84
2023/03/19 02:44:53;;;;;;;5.82;3.67;;;10.10;99.90;;;;;;5078600;28;20497;-84
2023/03/19 02:47:18;;;;;;;8.25;4.55;;;10.10;99.90;;;;;;5072326;28;20126;-84
2023/03/19 02:49:44;;;;;;;4.13;3.78;;;10.10;99.90;;;;;;5065462;28;20071;-84
2023/03/19 02:52:11;;;;;;;4.75;3.45;;;10.10;99.90;;;;;;5064451;28;20048;-84
2023/03/19 02:54:37;;;;;;;5.25;4.45;;;10.20;99.90;;;;;;5075705;28;20045;-85
2023/03/19 02:57:03;;;;;;;3.97;3.58;;;10.20;99.90;;;;;;5072401;28;20047;-84
2023/03/19 02:59:29;;;;;;;4.15;3.75;;;10.20;99.90;;;;;;5062134;28;20478;-84
2023/03/19 03:01:54;;;;;;;5.07;3.78;;;10.20;99.90;;;;;;5068546;28;20072;-84
2023/03/19 03:04:20;;;;;;;5.82;3.65;;;10.20;99.90;;;;;;5072976;28;20035;-84
2023/03/19 03:06:46;;;;;;;3.60;3.28;;;10.20;99.90;;;;;;5074770;28;20084;-84
2023/03/19 03:09:12;;;;;;;4.78;3.53;;;10.20;99.90;;;;;;5072115;28;20036;-84
2023/03/19 03:11:40;;;;;;;5.53;3.58;;;11.00;99.90;;;;;;5070980;28;20041;-84
2023/03/19 03:14:07;;;;;;;5.22;2.97;;;10.10;99.90;;;;;;5072375;28;20097;-84
2023/03/19 03:16:32;;;;;;;4.70;3.38;;;10.20;99.90;;;;;;5066764;28;20209;-85
2023/03/19 03:18:58;;;;;;;3.55;3.25;;;10.10;99.90;;;;;;5071245;28;20130;-84
2023/03/19 03:21:24;;;;;;;4.30;3.50;;;10.10;99.90;;;;;;5060717;28;20178;-84
2023/03/19 03:23:50;;;;;;;6.70;3.75;;;10.10;99.90;;;;;;5066926;28;20063;-84
2023/03/19 03:26:16;;;;;;;5.80;3.42;;;10.00;99.90;;;;;;5079739;28;20453;-84
2023/03/19 03:28:42;;;;;;;4.63;3.25;;;10.00;99.90;;;;;;5073466;28;20036;-84
2023/03/19 03:31:08;;;;;;;3.53;3.17;;;10.00;99.90;;;;;;5072672;28;20039;-84
2023/03/19 03:33:34;;;;;;;5.15;3.95;;;10.00;99.90;;;;;;5067744;28;20040;-84
2023/03/19 03:36:00;;;;;;;4.05;3.63;;;10.00;99.90;;;;;;5072131;28;20443;-84
2023/03/19 03:38:25;;;;;;;4.13;3.47;;;10.00;99.90;;;;;;5069081;28;20440;-84
2023/03/19 03:40:52;;;;;;;4.80;3.42;;;9.90;99.90;;;;;;5071343;28;20118;-85
2023/03/19 03:43:19;;;;;;;6.97;3.58;;;9.90;99.90;;;;;;5081939;28;20047;-84
2023/03/19 03:45:48;;;;;;;3.88;3.40;;;9.90;99.90;;;;;;5069885;28;20036;-84
2023/03/19 03:48:15;;;;;;;4.38;3.03;;;9.90;99.90;;;;;;5072247;28;20032;-84
2023/03/19 03:50:41;;;;;;;3.30;3.00;;;10.30;99.90;;;;;;5068703;28;20513;-84
2023/03/19 03:53:07;;;;;;;4.15;3.03;;;9.90;99.90;;;;;;5087485;28;20123;-84
2023/03/19 03:55:33;;;;;;;3.55;2.90;;;10.00;99.90;;;;;;5077373;28;20118;-85
2023/03/19 03:57:59;;;;;;;3.60;3.17;;;10.00;99.90;;;;;;5082009;28;20118;-85
2023/03/19 04:00:25;;;;;;;5.78;3.00;;;10.00;99.90;;;;;;5061864;28;20091;-85
2023/03/19 04:02:51;;;;;;;4.50;3.63;;;9.90;99.90;;;;;;5081224;28;20040;-85
2023/03/19 04:05:17;;;;;;;4.30;3.55;;;9.90;99.90;;;;;;5071639;28;20434;-85
2023/03/19 04:07:42;;;;;;;3.33;2.78;;;9.90;99.90;;;;;;5069662;28;20123;-85
2023/03/19 04:10:12;;;;;;;4.53;3.17;;;10.00;99.90;;;;;;5084175;28;20036;-85
2023/03/19 04:12:40;;;;;;;3.38;3.03;;;10.00;99.90;;;;;;5071251;28;20032;-85
2023/03/19 04:15:09;;;;;;;3.60;3.30;;;10.10;99.90;;;;;;5066861;28;20051;-85
2023/03/19 04:17:35;;;;;;;4.00;2.97;;;10.00;99.90;;;;;;5073652;28;20137;-85
2023/03/19 04:20:03;;;;;;;5.13;3.70;;;10.00;99.90;;;;;;5081590;28;20048;-85
2023/03/19 04:22:29;;;;;;;4.15;3.78;;;10.10;99.90;;;;;;5071177;28;20050;-86
2023/03/19 04:24:54;;;;;;;4.68;4.03;;;10.30;99.90;;;;;;5073818;28;20115;-85
2023/03/19 04:27:20;;;;;;;4.57;4.18;;;10.10;99.90;;;;;;5090631;28;20091;-85
2023/03/19 04:29:46;;;;;;;4.43;4.03;;;10.10;99.90;;;;;;5104322;28;20032;-85
2023/03/19 04:32:11;;;;;;;6.15;4.43;;;10.10;99.90;;;;;;5079989;28;20040;-85
2023/03/19 04:34:37;;;;;;;5.05;4.45;;;10.50;99.90;;;;;;5064252;28;20042;-85
2023/03/19 04:37:03;;;;;;;10.07;5.30;;;10.00;99.90;;;;;;5068484;28;20111;-85
2023/03/19 04:39:29;;;;;;;4.78;4.20;;;10.00;99.90;;;;;;5070720;28;20035;-85
2023/03/19 04:41:55;;;;;;;4.65;4.25;;;10.00;99.90;;;;;;5073388;28;20038;-85
2023/03/19 04:44:21;;;;;;;5.28;4.50;;;9.90;99.90;;;;;;5065944;28;20031;-85
2023/03/19 04:46:47;;;;;;;4.70;4.30;;;9.90;99.90;;;;;;5074892;28;20032;-85
2023/03/19 04:49:13;;;;;;;5.35;4.95;;;9.80;99.90;;;;;;5069283;28;20482;-85
2023/03/19 04:51:39;;;;;;;5.60;4.82;;;9.70;99.90;;;;;;5084261;28;20032;-85
2023/03/19 04:54:05;;;;;;;6.53;5.50;;;9.70;99.90;;;;;;5062980;28;20087;-85
2023/03/19 04:56:31;;;;;;;5.47;5.07;;;9.60;99.90;;;;;;5082066;28;20119;-85
2023/03/19 04:58:56;;;;;;;5.55;5.05;;;9.50;99.90;;;;;;5065716;28;20043;-85
2023/03/19 05:01:22;;;;;;;6.00;5.50;;;9.50;99.90;;;;;;5064077;28;20028;-85
2023/03/19 05:03:48;;;;;;;5.78;5.20;;;9.50;99.90;;;;;;5063860;28;20028;-85
2023/03/19 05:06:15;;;;;;;5.72;5.20;;;9.30;99.90;;;;;;5066717;28;20148;-85
2023/03/19 05:08:41;;;;;;;6.10;5.20;;;9.90;99.90;;;;;;5071901;28;20382;-85
2023/03/19 05:11:07;;;;;;;5.75;5.18;;;9.30;99.90;;;;;;5067458;28;20051;-86
2023/03/19 05:13:32;;;;;;;6.18;5.57;;;9.20;99.90;;;;;;5067287;28;20432;-85
2023/03/19 05:15:58;;;;;;;6.00;5.40;;;9.20;99.90;;;;;;5086846;28;20462;-85
2023/03/19 05:18:24;;;;;;;6.90;6.07;;;9.20;99.90;;;;;;5067653;28;20186;-85
2023/03/19 05:20:50;;;;;;;6.80;6.20;;;9.20;99.90;;;;;;5072674;28;20040;-85
2023/03/19 05:23:16;;;;;;;7.35;5.80;;;9.10;99.90;;;;;;5083130;28;20390;-85
2023/03/19 05:25:42;;;;;;;6.93;6.32;;;9.80;99.90;;;;;;5067171;28;20040;-85
2023/03/19 05:28:08;;;;;;;6.95;5.63;;;9.10;99.90;;;;;;5074307;28;20042;-85
2023/03/19 05:30:37;;;;;;;6.28;5.68;;;9.10;99.90;;;;;;5101705;28;20032;-85
2023/03/19 05:33:03;;;;;;;8.40;6.90;;;9.20;99.90;;;;;;5065712;28;20043;-85
2023/03/19 05:35:29;;;;;;;8.55;5.40;;;9.00;99.90;;;;;;5074581;28;20028;-85
2023/03/19 05:37:55;;;;;;;13.07;6.13;;;9.10;99.90;;;;;;5076641;28;20031;-85
2023/03/19 05:40:22;;;;;;;5.72;4.63;;;9.10;99.90;;;;;;5072348;28;20145;-85
2023/03/19 05:42:48;;;;;;;5.65;4.57;;;9.20;99.90;;;;;;5078590;28;20083;-85
2023/03/19 05:45:15;;;;;;;8.40;5.07;;;9.10;99.90;;;;;;5073472;28;20126;-85
2023/03/19 05:47:41;;;;;;;6.53;4.88;;;9.00;99.90;;;;;;5073548;28;20301;-85
2023/03/19 05:50:07;;;;;;;11.18;5.20;;;9.00;99.90;;;;;;5084316;28;20093;-85
2023/03/19 05:52:33;;;;;;;5.43;4.93;;;9.00;99.90;;;;;;5072846;28;20032;-86
2023/03/19 05:54:58;;;;;;;5.60;5.07;;;8.90;99.90;;;;;;5068377;28;20051;-85
2023/03/19 05:57:24;;;;;;;5.57;4.82;;;8.90;99.90;;;;;;5071936;28;20524;-85
2023/03/19 05:59:50;;;;;;;4.97;4.57;;;9.00;99.90;;;;;;5064831;28;20035;-85
2023/03/19 06:02:16;;;;;;;5.88;5.38;;;8.90;99.90;;;;;;5074642;28;20401;-85
2023/03/19 06:04:42;;;;;;;5.25;4.75;;;8.90;99.90;;;;;;5073385;28;20142;-85
2023/03/19 06:07:08;;;;;;;7.80;6.15;;;8.90;99.90;;;;;;5082560;28;20093;-85
2023/03/19 06:09:34;;;;;;;5.30;4.82;;;8.90;99.90;;;;;;5067291;28;20492;-85
2023/03/19 06:12:00;;;;;;;6.28;5.75;;;9.60;99.90;;;;;;5073882;28;20063;-85
2023/03/19 06:14:25;;;;;;;5.85;5.35;;;8.80;99.90;;;;;;5073084;28;20047;-85
2023/03/19 06:16:51;;;;;;;7.65;5.68;;;8.80;99.90;;;;;;5075529;28;20114;-86
2023/03/19 06:19:17;;;;;;;7.20;5.05;;;8.80;99.90;;;;;;5092539;28;20043;-85
2023/03/19 06:21:42;;;;;;;6.15;5.60;;;8.80;99.90;;;;;;5072928;28;20040;-86
2023/03/19 06:24:08;;;;;;;5.65;4.88;;;8.80;99.90;;;;;;5079866;28;20093;-86
2023/03/19 06:26:34;;;;;;;5.53;4.30;;;9.10;99.90;;;;;;5071166;28;20044;-86
2023/03/19 06:29:00;;;;;;;4.38;3.00;;;10.00;99.90;;;;;;5073532;28;20045;-86
2023/03/19 06:31:27;;;;;;;3.42;3.13;;;10.90;99.90;;;;;;5068021;28;20074;-86
2023/03/19 06:33:55;;;;;;;3.78;3.47;;;11.20;99.90;;;;;;5087084;28;20114;-86
2023/03/19 06:36:20;;;;;;;3.40;3.05;;;11.40;99.90;;;;;;5070245;28;20031;-85
2023/03/19 06:38:46;;;;;;;2.72;2.53;;;12.00;99.90;;;;;;5073410;28;20123;-86
2023/03/19 06:41:12;;;;;;;4.22;3.10;;;12.90;99.90;;;;;;5067658;28;20056;-87
2023/03/19 06:43:40;;;;;;;3.25;2.50;;;13.40;99.90;;;;;;5083500;28;20024;-85
2023/03/19 06:46:07;;;;;;;3.20;2.90;;;13.30;99.90;;;;;;5069640;28;20051;-83
2023/03/19 06:48:34;;;;;;;4.05;2.90;;;12.90;99.90;;;;;;5063861;28;20173;-85
2023/03/19 06:51:10;;;;;;;3.70;3.40;;;12.70;99.90;;;;;;5097780;28;20505;-86
2023/03/19 06:57:17;;;;;;;3.17;2.72;;;14.50;99.90;;;;;;5098615;28;20092;-87
2023/03/19 07:00:04;;;;;;;3.70;2.75;;;15.60;99.90;;;;;;5065378;28;20115;-87
2023/03/19 07:02:30;;;;;;;3.30;2.97;;;16.10;99.90;;;;;;5068537;28;20039;-85
2023/03/19 07:04:56;;;;;;;3.30;3.00;;;16.40;99.90;;;;;;5081942;28;20038;-86
2023/03/19 07:07:22;;;;;;;4.28;3.83;;;16.70;99.90;;;;;;5067185;28;20479;-87
2023/03/19 07:09:47;;;;;;;4.00;3.35;;;17.10;99.90;;;;;;5083655;28;20122;-86
2023/03/19 07:12:13;;;;;;;3.78;3.47;;;17.30;99.90;;;;;;5083918;28;20051;-86
2023/03/19 07:14:38;;;;;;;3.53;3.13;;;17.40;99.90;;;;;;5086780;28;20078;-87
2023/03/19 07:17:04;;;;;;;5.05;3.78;;;17.70;99.90;;;;;;5072597;28;20060;-85
2023/03/19 07:19:30;;;;;;;3.65;3.35;;;17.70;99.90;;;;;;5070058;28;20398;-84
2023/03/19 07:21:55;;;;;;;3.80;3.50;;;17.80;99.90;;;;;;5084619;28;20039;-84
2023/03/19 07:24:21;;;;;;;4.50;3.40;;;17.80;99.90;;;;;;5068864;28;20035;-84
2023/03/19 07:26:46;;;;;;;3.90;3.60;;;17.50;99.90;;;;;;5064647;28;20040;-85
2023/03/19 07:29:12;;;;;;;4.28;3.85;;;17.40;99.90;;;;;;5071385;28;20035;-86
2023/03/19 07:31:38;;;;;;;5.07;4.05;;;17.20;99.90;;;;;;5073110;28;20509;-85
2023/03/19 07:34:04;;;;;;;4.60;4.20;;;16.90;99.90;;;;;;5070013;28;20040;-85
2023/03/19 07:36:30;;;;;;;5.43;3.95;;;16.70;99.90;;;;;;5068437;28;20576;-86
2023/03/19 07:38:56;;;;;;;4.18;3.88;;;17.00;99.90;;;;;;5084948;28;20078;-87
2023/03/19 07:41:22;;;;;;;4.80;4.43;;;17.50;99.90;;;;;;5063740;28;20028;-86
2023/03/19 07:43:48;;;;;;;4.55;3.78;;;17.70;99.90;;;;;;5080791;28;20039;-84
2023/03/19 07:46:13;;;;;;;4.00;3.70;;;17.10;99.90;;;;;;5066707;28;20054;-87
2023/03/19 07:48:39;;;;;;;5.07;4.57;;;16.60;99.90;;;;;;5081244;28;20080;-87
2023/03/19 07:51:05;;;;;;;4.25;3.85;;;16.30;99.90;;;;;;5067027;28;20028;-85
2023/03/19 07:53:31;;;;;;;4.15;3.80;;;15.80;99.90;;;;;;5065176;28;20032;-85
2023/03/19 07:55:56;;;;;;;5.35;4.25;;;15.50;99.90;;;;;;5084933;28;20098;-85
2023/03/19 07:58:22;;;;;;;5.93;5.30;;;15.10;99.90;;;;;;5068534;28;20031;-85
2023/03/19 08:00:47;;;;;;;5.68;5.18;;;14.60;99.90;;;;;;5065975;28;20032;-84
2023/03/19 08:03:13;;;;;;;6.15;5.60;;;14.30;99.90;;;;;;5069145;28;20047;-85
2023/03/19 08:05:39;;;;;;;6.20;5.60;;;14.00;99.90;;;;;;5070724;28;20125;-85
2023/03/19 08:08:05;;;;;;;6.32;5.82;;;13.70;99.90;;;;;;5078150;28;20098;-85
2023/03/19 08:10:30;;;;;;;6.68;6.07;;;13.50;99.90;;;;;;5088238;28;20040;-84
2023/03/19 08:12:56;;;;;;;6.60;5.95;;;13.40;99.90;;;;;;5082776;28;20064;-84
2023/03/19 08:15:22;;;;;;;7.13;6.45;;;13.40;99.90;;;;;;5073522;28;20050;-84
2023/03/19 08:17:47;;;;;;;10.00;7.00;;;13.30;99.90;;;;;;5064589;28;20035;-84
2023/03/19 08:20:17;;;;;;;9.10;6.82;;;13.20;99.90;;;;;;5070774;28;20062;-84
2023/03/19 08:22:47;;;;;;;9.25;8.32;;;13.10;99.90;;;;;;5069391;28;20074;-85
2023/03/19 08:25:13;;;;;;;8.43;7.72;;;13.10;99.90;;;;;;5066409;28;20077;-84
2023/03/19 08:27:39;;;;;;;8.35;7.72;;;13.00;99.90;;;;;;5082684;28;20044;-84
2023/03/19 08:30:07;;;;;;;7.88;7.15;;;13.20;99.90;;;;;;5066403;28;20039;-84
2023/03/19 08:32:33;;;;;;;8.38;7.57;;;13.20;99.90;;;;;;5051289;28;20123;-84
2023/03/19 08:34:59;;;;;;;7.70;7.10;;;14.00;99.90;;;;;;5069066;28;20063;-84
2023/03/19 08:37:24;;;;;;;7.05;6.45;;;13.10;99.90;;;;;;5082652;28;20490;-84
2023/03/19 08:39:51;;;;;;;7.15;6.60;;;12.90;99.90;;;;;;5070233;28;20114;-85
2023/03/19 08:42:17;;;;;;;6.78;6.18;;;12.80;99.90;;;;;;5070346;28;20088;-85
2023/03/19 08:44:43;;;;;;;7.55;6.88;;;12.70;99.90;;;;;;5084052;28;20055;-85
2023/03/19 08:47:08;;;;;;;7.60;6.90;;;12.50;99.90;;;;;;5066439;28;20064;-85
2023/03/19 08:49:34;;;;;;;6.88;6.25;;;11.70;99.90;;;;;;5069562;28;20031;-85
2023/03/19 08:52:00;;;;;;;7.32;6.63;;;12.30;99.90;;;;;;5066000;28;20095;-85
2023/03/19 08:54:26;;;;;;;7.80;7.10;;;12.20;99.90;;;;;;5086103;28;20048;-84
2023/03/19 08:56:51;;;;;;;7.72;6.97;;;12.60;99.90;;;;;;5086770;28;20478;-84
2023/03/19 08:59:18;;;;;;;7.70;7.00;;;12.10;99.90;;;;;;5067364;28;20044;-85
2023/03/19 09:01:44;;;;;;;7.40;6.65;;;12.10;99.90;;;;;;5049030;28;20423;-85
2023/03/19 09:04:09;;;;;;;7.75;7.15;;;12.00;99.90;;;;;;5062393;28;20044;-86
2023/03/19 09:06:35;;;;;;;7.57;6.28;;;12.00;99.90;;;;;;5051600;28;20032;-85
2023/03/19 09:09:00;;;;;;;7.47;6.53;;;12.00;99.90;;;;;;5043081;28;20063;-84
2023/03/19 09:11:26;;;;;;;7.13;6.50;;;12.00;99.90;;;;;;5038117;28;20048;-85
2023/03/19 09:13:51;;;;;;;6.70;6.10;;;12.10;99.90;;;;;;5045112;28;20048;-84
2023/03/19 09:16:17;;;;;;;7.65;6.53;;;12.20;99.90;;;;;;5048242;28;20448;-85
2023/03/19 09:18:43;;;;;;;8.95;7.28;;;12.20;99.90;;;;;;5044257;28;20555;-85
2023/03/19 09:21:08;;;;;;;7.45;6.82;;;12.40;99.90;;;;;;5052950;28;20502;-85
2023/03/19 09:23:34;;;;;;;7.78;6.97;;;12.40;99.90;;;;;;5051028;28;20032;-85
2023/03/19 09:25:59;;;;;;;7.25;6.65;;;12.50;99.90;;;;;;5051208;28;20410;-85
2023/03/19 09:28:26;;;;;;;7.85;6.88;;;12.50;99.90;;;;;;5045859;28;20536;-85
2023/03/19 09:30:52;;;;;;;6.63;5.97;;;12.50;99.90;;;;;;5045543;28;20702;-84
2023/03/19 09:33:19;;;;;;;7.60;6.63;;;12.50;99.90;;;;;;5044532;28;20051;-85
2023/03/19 09:35:52;;;;;;;7.63;6.95;;;12.50;99.90;;;;;;5053787;28;20047;-85
2023/03/19 09:38:19;;;;;;;8.13;7.40;;;12.50;99.90;;;;;;5064932;28;20032;-85
2023/03/19 09:41:17;;;;;;;7.22;6.63;;;12.60;99.90;;;;;;5045592;28;20036;-85
2023/03/19 09:44:00;;;;;;;7.25;6.53;;;12.60;99.90;;;;;;5053919;28;20515;-84
2023/03/19 09:46:34;;;;;;;7.18;5.85;;;12.60;99.90;;;;;;5065532;28;20055;-85
2023/03/19 09:49:13;;;;;;;7.05;6.43;;;12.60;99.90;;;;;;5080962;28;20162;-84
2023/03/19 09:51:50;;;;;;;7.22;6.53;;;12.60;99.90;;;;;;5066670;28;20498;-85
2023/03/19 09:54:33;;;;;;;7.72;6.65;;;12.50;99.90;;;;;;5045344;28;20373;-85
2023/03/19 09:56:59;;;;;;;7.00;6.35;;;12.50;99.90;;;;;;5066990;28;20540;-85
2023/03/19 09:59:27;;;;;;;7.47;6.72;;;12.80;99.90;;;;;;5060400;28;20452;-87
2023/03/19 10:02:23;;;;;;;7.80;7.10;;;12.50;99.90;;;;;;5071313;28;20470;-85
2023/03/19 10:05:07;;;;;;;7.63;6.93;;;12.40;99.90;;;;;;5071983;28;20571;-85
2023/03/19 10:07:38;;;;;;;8.43;7.57;;;13.20;99.90;;;;;;5047388;28;20097;-85
2023/03/19 10:10:35;;;;;;;8.45;7.63;;;12.40;99.90;;;;;;5056426;28;20440;-85
2023/03/19 10:13:08;;;;;;;;;;;12.40;99.90;;;;;;5046780;28;20067;-85
2023/03/19 10:15:36;;;;;;;7.75;6.75;;;12.30;99.90;;;;;;5067133;28;19920;-85
2023/03/19 10:18:11;;;;;;;9.68;8.07;;;12.30;99.90;;;;;;5061278;28;20037;-86
2023/03/19 10:21:10;;;;;;;9.43;8.55;;;12.30;99.90;;;;;;5047995;28;20040;-86
2023/03/19 10:24:02;;;;;;;8.48;7.78;;;12.30;99.90;;;;;;5077296;28;20067;-85
2023/03/19 10:26:30;;;;;;;9.63;8.63;;;12.40;99.90;;;;;;5081298;28;20579;-85
2023/03/19 10:29:18;;;;;;;8.85;8.05;;;12.40;99.90;;;;;;5055111;28;20044;-85
2023/03/19 10:32:03;;;;;;;9.68;8.88;;;12.40;99.90;;;;;;5066008;28;20075;-85
2023/03/19 10:34:39;;;;;;;9.83;9.00;;;12.40;99.90;;;;;;5064761;28;20127;-85
2023/03/19 10:37:14;;;;;;;11.45;10.35;;;12.40;99.90;;;;;;5060894;28;20056;-85
2023/03/19 10:39:43;;;;;;;11.70;10.55;;;12.30;99.90;;;;;;5043177;28;20731;-85
2023/03/19 10:42:28;;;;;;;11.48;10.55;;;12.20;99.90;;;;;;5065114;28;20379;-86
2023/03/19 10:45:33;;;;;;;12.80;11.50;;;12.20;99.90;;;;;;5042487;28;20036;-85
2023/03/19 10:48:01;;;;;;;11.90;10.70;;;12.10;99.90;;;;;;5061143;28;20123;-85
2023/03/19 10:50:48;;;;;;;11.57;10.57;;;12.20;99.90;;;;;;5044355;28;20119;-85
2023/03/19 10:53:14;;;;;;;12.15;11.05;;;12.10;99.90;;;;;;5061274;28;20040;-86
2023/03/19 10:56:15;;;;;;;13.48;12.18;;;12.10;99.90;;;;;;5053245;28;20439;-85
2023/03/19 10:58:58;;;;;;;13.50;10.77;;;12.20;99.90;;;;;;5022824;28;20060;-85
2023/03/19 11:01:35;;;;;;;11.82;10.73;;;12.20;99.90;;;;;;5076101;28;20043;-85
2023/03/19 11:04:11;;;;;;;12.45;11.40;;;12.20;99.90;;;;;;5063428;28;20056;-86
2023/03/19 11:06:37;;;;;;;12.68;11.60;;;12.10;99.90;;;;;;5043423;28;20067;-86
2023/03/19 11:09:09;;;;;;;12.05;11.00;;;12.20;99.90;;;;;;5046285;28;20043;-85
2023/03/19 11:11:55;;;;;;;11.45;10.45;;;12.20;99.90;;;;;;5044033;28;20037;-85
2023/03/19 11:14:34;;;;;;;12.05;10.68;;;12.30;99.90;;;;;;5036030;28;20054;-86
2023/03/19 11:17:34;;;;;;;11.70;10.70;;;12.30;99.90;;;;;;5045531;28;20068;-85
2023/03/19 11:20:26;;;;;;;11.50;10.48;;;12.40;99.90;;;;;;5078392;28;20040;-85
2023/03/19 11:22:53;;;;;;;11.27;10.18;;;12.30;99.90;;;;;;5068557;28;20035;-85
2023/03/19 11:25:27;;;;;;;12.55;11.55;;;12.40;99.90;;;;;;5070954;28;20083;-86
2023/03/19 11:28:11;;;;;;;12.40;11.38;;;12.30;99.90;;;;;;5056374;28;20036;-85
2023/03/19 11:30:54;;;;;;;11.82;10.68;;;12.40;99.90;;;;;;5050207;28;20109;-85
2023/03/19 11:33:41;;;;;;;12.57;11.38;;;12.40;99.90;;;;;;5044963;28;20040;-86
2023/03/19 11:36:26;;;;;;;12.60;11.50;;;12.40;99.90;;;;;;5067826;28;20040;-85
2023/03/19 11:39:19;;;;;;;12.43;11.20;;;12.60;99.90;;;;;;5044724;28;20136;-85
2023/03/19 11:42:12;;;;;;;12.32;11.13;;;12.70;99.90;;;;;;5051997;28;20501;-85
2023/03/19 11:44:41;;;;;;;11.75;10.75;;;12.70;99.90;;;;;;5046520;28;20096;-85
2023/03/19 11:47:32;;;;;;;11.70;10.57;;;12.70;99.90;;;;;;5045908;28;20045;-86
2023/03/19 11:50:18;;;;;;;11.77;10.77;;;12.70;99.90;;;;;;5035496;28;20056;-86
2023/03/19 11:53:11;;;;;;;12.27;11.15;;;12.60;99.90;;;;;;5064801;28;20066;-85
2023/03/19 11:56:03;;;;;;;12.40;11.25;;;12.60;99.90;;;;;;5053751;28;20119;-85
2023/03/19 11:58:38;;;;;;;10.65;9.65;;;12.80;99.90;;;;;;5045706;28;20119;-84
2023/03/19 12:01:41;;;;;;;10.43;9.43;;;12.80;99.90;;;;;;5050695;28;20138;-85
2023/03/19 12:04:36;;;;;;;10.57;9.63;;;12.80;99.90;;;;;;5050601;28;20036;-85
2023/03/19 12:07:21;;;;;;;12.15;10.98;;;12.90;99.90;;;;;;5049167;28;20040;-85
2023/03/19 12:10:24;;;;;;;11.52;10.27;;;13.00;99.90;;;;;;5066910;28;20121;-85
2023/03/19 12:13:22;;;;;;;11.45;10.45;;;13.00;99.90;;;;;;5046531;28;20084;-85
2023/03/19 12:16:15;;;;;;;10.93;9.82;;;13.00;99.90;;;;;;5063252;28;20090;-85
2023/03/19 12:18:48;;;;;;;14.00;10.95;;;12.90;99.90;;;;;;5044619;28;20037;-86
2023/03/19 12:21:32;;;;;;;11.65;10.65;;;12.90;99.90;;;;;;5063385;28;20097;-85
2023/03/19 12:24:36;;;;;;;13.00;11.70;;;12.90;99.90;;;;;;5042195;28;20036;-86
2023/03/19 12:27:24;;;;;;;13.38;12.10;;;12.80;99.90;;;;;;5033628;28;20059;-85
2023/03/19 12:29:58;;;;;;;12.68;11.45;;;12.90;99.90;;;;;;5070529;28;20044;-85
2023/03/19 12:32:40;;;;;;;11.85;10.75;;;12.80;99.90;;;;;;5057118;28;20052;-85
2023/03/19 12:35:13;;;;;;;12.07;10.90;;;12.70;99.90;;;;;;5061188;28;20075;-86
2023/03/19 12:37:53;;;;;;;12.02;10.93;;;12.70;99.90;;;;;;5059750;28;20032;-85
2023/03/19 12:40:19;;;;;;;13.27;11.98;;;12.70;99.90;;;;;;5060929;28;20490;-85
2023/03/19 12:42:45;;;;;;;11.40;10.38;;;12.70;99.90;;;;;;5063161;28;20062;-85
2023/03/19 12:45:45;;;;;;;15.73;11.90;;;12.70;99.90;;;;;;5052435;28;20027;-86
2023/03/19 12:48:20;;;;;;;12.93;11.73;;;12.80;99.90;;;;;;5045533;28;20121;-85
2023/03/19 12:50:50;;;;;;;13.35;12.18;;;12.80;99.90;;;;;;5043651;28;20036;-85
2023/03/19 12:53:37;;;;;;;15.07;13.15;;;12.90;99.90;;;;;;5044755;28;20043;-85
2023/03/19 12:56:13;;;;;;;12.98;11.82;;;13.00;99.90;;;;;;5047644;28;20067;-86
2023/03/19 12:59:01;;;;;;;14.00;12.52;;;13.10;99.90;;;;;;5046898;28;20037;-85
2023/03/19 13:01:41;;;;;;;13.60;12.30;;;13.30;99.90;;;;;;5059229;28;20123;-86
2023/03/19 13:04:21;;;;;;;11.73;10.70;;;13.40;99.90;;;;;;5082166;28;20465;-85